sensor_id;sensor_type;location;lat;lon;timestamp;P1;durP1;ratioP1;P2;durP2;ratioP2
56183;SDS011;42086;53.170;6.980;2022-12-18T00:00:46;138.48;;;34.72;;
56183;SDS011;42086;53.170;6.980;2022-12-18T00:03:12;134.52;;;32.58;;
56183;SDS011;42086;53.170;6.980;2022-12-18T00:05:46;137.98;;;33.97;;
56183;SDS011;42086;53.170;6.980;2022-12-18T00:08:16;122.70;;;31.00;;
56183;SDS011;42086;53.170;6.980;2022-12-18T00:10:42;133.93;;;32.17;;
56183;SDS011;42086;53.170;6.980;2022-12-18T00:13:08;145.82;;;32.47;;
56183;SDS011;42086;53.170;6.980;2022-12-18T00:15:34;119.35;;;28.85;;
56183;SDS011;42086;53.170;6.980;2022-12-18T00:18:00;98.70;;;26.90;;
56183;SDS011;42086;53.170;6.980;2022-12-18T00:20:26;80.57;;;21.25;;
56183;SDS011;42086;53.170;6.980;2022-12-18T00:22:52;125.75;;;31.70;;
56183;SDS011;42086;53.170;6.980;2022-12-18T00:25:18;105.55;;;29.33;;
56183;SDS011;42086;53.170;6.980;2022-12-18T00:27:44;123.47;;;30.63;;
56183;SDS011;42086;53.170;6.980;2022-12-18T00:30:10;97.72;;;24.10;;
56183;SDS011;42086;53.170;6.980;2022-12-18T00:32:36;109.65;;;26.58;;
56183;SDS011;42086;53.170;6.980;2022-12-18T00:35:02;85.63;;;22.23;;
56183;SDS011;42086;53.170;6.980;2022-12-18T00:37:29;99.32;;;25.85;;
56183;SDS011;42086;53.170;6.980;2022-12-18T00:39:55;106.43;;;28.63;;
56183;SDS011;42086;53.170;6.980;2022-12-18T00:42:20;79.72;;;21.48;;
56183;SDS011;42086;53.170;6.980;2022-12-18T00:45:05;110.15;;;27.70;;
56183;SDS011;42086;53.170;6.980;2022-12-18T00:47:31;103.65;;;26.42;;
56183;SDS011;42086;53.170;6.980;2022-12-18T00:49:57;112.18;;;27.25;;
56183;SDS011;42086;53.170;6.980;2022-12-18T00:52:22;83.07;;;22.83;;
56183;SDS011;42086;53.170;6.980;2022-12-18T00:54:48;99.35;;;26.15;;
56183;SDS011;42086;53.170;6.980;2022-12-18T00:57:14;105.75;;;27.30;;
56183;SDS011;42086;53.170;6.980;2022-12-18T00:59:39;94.57;;;24.67;;
56183;SDS011;42086;53.170;6.980;2022-12-18T01:02:05;110.70;;;28.80;;
56183;SDS011;42086;53.170;6.980;2022-12-18T01:04:31;125.70;;;28.27;;
56183;SDS011;42086;53.170;6.980;2022-12-18T01:06:58;115.75;;;27.83;;
56183;SDS011;42086;53.170;6.980;2022-12-18T01:09:23;114.57;;;29.15;;
56183;SDS011;42086;53.170;6.980;2022-12-18T01:11:49;120.40;;;29.15;;
56183;SDS011;42086;53.170;6.980;2022-12-18T01:14:15;121.00;;;27.98;;
56183;SDS011;42086;53.170;6.980;2022-12-18T01:16:41;95.88;;;22.23;;
56183;SDS011;42086;53.170;6.980;2022-12-18T01:19:07;128.98;;;30.65;;
56183;SDS011;42086;53.170;6.980;2022-12-18T01:21:32;120.25;;;29.67;;
56183;SDS011;42086;53.170;6.980;2022-12-18T01:23:58;131.23;;;30.17;;
56183;SDS011;42086;53.170;6.980;2022-12-18T01:26:24;122.78;;;28.95;;
56183;SDS011;42086;53.170;6.980;2022-12-18T01:28:50;128.45;;;28.70;;
56183;SDS011;42086;53.170;6.980;2022-12-18T01:31:18;111.82;;;28.85;;
56183;SDS011;42086;53.170;6.980;2022-12-18T01:33:55;108.05;;;27.25;;
56183;SDS011;42086;53.170;6.980;2022-12-18T01:36:25;120.93;;;30.00;;
56183;SDS011;42086;53.170;6.980;2022-12-18T01:38:53;80.18;;;22.92;;
56183;SDS011;42086;53.170;6.980;2022-12-18T01:41:23;94.03;;;26.23;;
56183;SDS011;42086;53.170;6.980;2022-12-18T01:43:55;119.00;;;26.95;;
56183;SDS011;42086;53.170;6.980;2022-12-18T01:46:23;95.90;;;22.95;;
56183;SDS011;42086;53.170;6.980;2022-12-18T01:48:52;105.57;;;28.85;;
56183;SDS011;42086;53.170;6.980;2022-12-18T01:51:22;118.30;;;28.80;;
56183;SDS011;42086;53.170;6.980;2022-12-18T01:53:48;119.47;;;29.95;;
56183;SDS011;42086;53.170;6.980;2022-12-18T01:56:15;119.00;;;29.63;;
56183;SDS011;42086;53.170;6.980;2022-12-18T02:01:22;115.47;;;28.42;;
56183;SDS011;42086;53.170;6.980;2022-12-18T02:03:48;110.57;;;28.42;;
56183;SDS011;42086;53.170;6.980;2022-12-18T02:11:36;113.38;;;28.42;;
56183;SDS011;42086;53.170;6.980;2022-12-18T02:19:43;112.38;;;27.92;;
56183;SDS011;42086;53.170;6.980;2022-12-18T02:22:48;111.75;;;27.98;;
56183;SDS011;42086;53.170;6.980;2022-12-18T02:28:19;120.18;;;31.50;;
56183;SDS011;42086;53.170;6.980;2022-12-18T02:30:48;120.13;;;30.80;;
56183;SDS011;42086;53.170;6.980;2022-12-18T02:33:15;114.32;;;30.23;;
56183;SDS011;42086;53.170;6.980;2022-12-18T02:35:42;118.93;;;30.15;;
56183;SDS011;42086;53.170;6.980;2022-12-18T02:38:11;112.90;;;29.65;;
56183;SDS011;42086;53.170;6.980;2022-12-18T02:40:38;117.65;;;31.63;;
56183;SDS011;42086;53.170;6.980;2022-12-18T02:43:13;110.68;;;29.48;;
56183;SDS011;42086;53.170;6.980;2022-12-18T02:45:47;118.63;;;28.75;;
56183;SDS011;42086;53.170;6.980;2022-12-18T02:48:24;101.75;;;26.80;;
56183;SDS011;42086;53.170;6.980;2022-12-18T02:51:18;113.22;;;28.38;;
56183;SDS011;42086;53.170;6.980;2022-12-18T02:56:50;104.47;;;29.48;;
56183;SDS011;42086;53.170;6.980;2022-12-18T02:59:21;119.15;;;31.98;;
56183;SDS011;42086;53.170;6.980;2022-12-18T03:01:58;109.75;;;30.42;;
56183;SDS011;42086;53.170;6.980;2022-12-18T03:04:39;116.75;;;30.25;;
56183;SDS011;42086;53.170;6.980;2022-12-18T03:07:23;115.43;;;31.98;;
56183;SDS011;42086;53.170;6.980;2022-12-18T03:10:14;110.07;;;30.48;;
56183;SDS011;42086;53.170;6.980;2022-12-18T03:12:46;106.25;;;30.50;;
56183;SDS011;42086;53.170;6.980;2022-12-18T03:15:24;105.55;;;30.60;;
56183;SDS011;42086;53.170;6.980;2022-12-18T03:18:06;113.75;;;30.00;;
56183;SDS011;42086;53.170;6.980;2022-12-18T03:20:35;104.72;;;29.75;;
56183;SDS011;42086;53.170;6.980;2022-12-18T03:23:11;114.88;;;29.95;;
56183;SDS011;42086;53.170;6.980;2022-12-18T03:25:45;109.20;;;30.57;;
56183;SDS011;42086;53.170;6.980;2022-12-18T03:28:13;116.85;;;32.58;;
56183;SDS011;42086;53.170;6.980;2022-12-18T03:30:41;120.47;;;30.58;;
56183;SDS011;42086;53.170;6.980;2022-12-18T03:33:12;113.95;;;31.65;;
56183;SDS011;42086;53.170;6.980;2022-12-18T03:35:46;111.80;;;30.13;;
56183;SDS011;42086;53.170;6.980;2022-12-18T03:38:11;116.88;;;30.50;;
56183;SDS011;42086;53.170;6.980;2022-12-18T03:40:43;105.75;;;30.35;;
56183;SDS011;42086;53.170;6.980;2022-12-18T03:43:20;110.90;;;28.88;;
56183;SDS011;42086;53.170;6.980;2022-12-18T03:46:11;100.47;;;28.80;;
56183;SDS011;42086;53.170;6.980;2022-12-18T03:48:52;103.45;;;28.85;;
56183;SDS011;42086;53.170;6.980;2022-12-18T03:51:37;96.97;;;26.92;;
56183;SDS011;42086;53.170;6.980;2022-12-18T03:54:07;97.15;;;26.83;;
56183;SDS011;42086;53.170;6.980;2022-12-18T03:56:49;86.30;;;25.88;;
56183;SDS011;42086;53.170;6.980;2022-12-18T03:59:22;78.40;;;25.67;;
56183;SDS011;42086;53.170;6.980;2022-12-18T04:01:50;76.63;;;25.13;;
56183;SDS011;42086;53.170;6.980;2022-12-18T04:04:18;80.70;;;25.42;;
56183;SDS011;42086;53.170;6.980;2022-12-18T04:06:45;78.65;;;24.83;;
56183;SDS011;42086;53.170;6.980;2022-12-18T04:09:13;70.05;;;24.02;;
56183;SDS011;42086;53.170;6.980;2022-12-18T04:11:39;71.53;;;23.52;;
56183;SDS011;42086;53.170;6.980;2022-12-18T04:14:08;70.63;;;22.73;;
56183;SDS011;42086;53.170;6.980;2022-12-18T04:16:34;68.90;;;23.05;;
56183;SDS011;42086;53.170;6.980;2022-12-18T04:19:00;65.47;;;22.55;;
56183;SDS011;42086;53.170;6.980;2022-12-18T04:21:26;67.40;;;23.10;;
56183;SDS011;42086;53.170;6.980;2022-12-18T04:23:52;76.18;;;23.88;;
56183;SDS011;42086;53.170;6.980;2022-12-18T04:26:18;62.67;;;22.55;;
56183;SDS011;42086;53.170;6.980;2022-12-18T04:28:43;70.03;;;22.15;;
56183;SDS011;42086;53.170;6.980;2022-12-18T04:31:09;68.72;;;22.65;;
56183;SDS011;42086;53.170;6.980;2022-12-18T04:33:35;68.05;;;21.75;;
56183;SDS011;42086;53.170;6.980;2022-12-18T04:36:00;62.88;;;21.08;;
56183;SDS011;42086;53.170;6.980;2022-12-18T04:38:26;68.25;;;22.35;;
56183;SDS011;42086;53.170;6.980;2022-12-18T04:40:52;69.85;;;23.95;;
56183;SDS011;42086;53.170;6.980;2022-12-18T04:43:17;76.95;;;24.95;;
56183;SDS011;42086;53.170;6.980;2022-12-18T04:45:43;69.00;;;22.02;;
56183;SDS011;42086;53.170;6.980;2022-12-18T04:48:09;67.68;;;21.33;;
56183;SDS011;42086;53.170;6.980;2022-12-18T04:50:35;67.57;;;22.95;;
56183;SDS011;42086;53.170;6.980;2022-12-18T04:53:01;68.25;;;22.08;;
56183;SDS011;42086;53.170;6.980;2022-12-18T04:55:26;66.28;;;22.17;;
56183;SDS011;42086;53.170;6.980;2022-12-18T04:57:52;67.60;;;20.95;;
56183;SDS011;42086;53.170;6.980;2022-12-18T05:00:18;66.60;;;21.42;;
56183;SDS011;42086;53.170;6.980;2022-12-18T05:02:45;70.53;;;22.80;;
56183;SDS011;42086;53.170;6.980;2022-12-18T05:05:10;63.35;;;20.98;;
56183;SDS011;42086;53.170;6.980;2022-12-18T05:07:36;65.60;;;22.10;;
56183;SDS011;42086;53.170;6.980;2022-12-18T05:10:02;67.45;;;20.42;;
56183;SDS011;42086;53.170;6.980;2022-12-18T05:12:28;71.10;;;22.25;;
56183;SDS011;42086;53.170;6.980;2022-12-18T05:14:56;67.18;;;21.30;;
56183;SDS011;42086;53.170;6.980;2022-12-18T05:17:22;61.05;;;20.92;;
56183;SDS011;42086;53.170;6.980;2022-12-18T05:19:47;61.38;;;20.73;;
56183;SDS011;42086;53.170;6.980;2022-12-18T05:22:13;65.90;;;21.35;;
56183;SDS011;42086;53.170;6.980;2022-12-18T05:24:39;71.60;;;20.80;;
56183;SDS011;42086;53.170;6.980;2022-12-18T05:27:04;61.53;;;20.15;;
56183;SDS011;42086;53.170;6.980;2022-12-18T05:29:30;62.63;;;20.85;;
56183;SDS011;42086;53.170;6.980;2022-12-18T05:31:56;57.70;;;20.00;;
56183;SDS011;42086;53.170;6.980;2022-12-18T05:34:21;58.72;;;20.17;;
56183;SDS011;42086;53.170;6.980;2022-12-18T05:36:47;64.38;;;20.95;;
56183;SDS011;42086;53.170;6.980;2022-12-18T05:39:13;61.10;;;20.17;;
56183;SDS011;42086;53.170;6.980;2022-12-18T05:41:38;48.45;;;18.00;;
56183;SDS011;42086;53.170;6.980;2022-12-18T05:44:04;60.63;;;20.38;;
56183;SDS011;42086;53.170;6.980;2022-12-18T05:46:30;61.92;;;18.67;;
56183;SDS011;42086;53.170;6.980;2022-12-18T05:48:59;55.00;;;20.27;;
56183;SDS011;42086;53.170;6.980;2022-12-18T05:51:26;50.80;;;17.00;;
56183;SDS011;42086;53.170;6.980;2022-12-18T05:53:52;54.70;;;19.20;;
56183;SDS011;42086;53.170;6.980;2022-12-18T05:56:19;49.50;;;18.17;;
56183;SDS011;42086;53.170;6.980;2022-12-18T05:58:46;56.08;;;18.98;;
56183;SDS011;42086;53.170;6.980;2022-12-18T06:01:17;51.22;;;19.35;;
56183;SDS011;42086;53.170;6.980;2022-12-18T06:03:45;55.92;;;18.30;;
56183;SDS011;42086;53.170;6.980;2022-12-18T06:08:41;55.85;;;19.50;;
56183;SDS011;42086;53.170;6.980;2022-12-18T06:11:07;47.58;;;17.95;;
56183;SDS011;42086;53.170;6.980;2022-12-18T06:13:32;57.08;;;18.73;;
56183;SDS011;42086;53.170;6.980;2022-12-18T06:16:01;58.97;;;18.52;;
56183;SDS011;42086;53.170;6.980;2022-12-18T06:18:28;56.60;;;19.65;;
56183;SDS011;42086;53.170;6.980;2022-12-18T06:20:56;56.50;;;20.05;;
56183;SDS011;42086;53.170;6.980;2022-12-18T06:23:23;48.17;;;17.95;;
56183;SDS011;42086;53.170;6.980;2022-12-18T06:25:48;48.95;;;18.23;;
56183;SDS011;42086;53.170;6.980;2022-12-18T06:28:14;49.90;;;19.08;;
56183;SDS011;42086;53.170;6.980;2022-12-18T06:30:43;53.88;;;18.40;;
56183;SDS011;42086;53.170;6.980;2022-12-18T06:33:09;52.17;;;18.85;;
56183;SDS011;42086;53.170;6.980;2022-12-18T06:35:35;53.88;;;17.38;;
56183;SDS011;42086;53.170;6.980;2022-12-18T06:38:01;52.20;;;18.05;;
56183;SDS011;42086;53.170;6.980;2022-12-18T06:40:27;46.85;;;18.45;;
56183;SDS011;42086;53.170;6.980;2022-12-18T06:42:53;52.08;;;17.85;;
56183;SDS011;42086;53.170;6.980;2022-12-18T06:45:19;51.53;;;17.50;;
56183;SDS011;42086;53.170;6.980;2022-12-18T06:47:45;57.85;;;18.80;;
56183;SDS011;42086;53.170;6.980;2022-12-18T06:50:11;48.75;;;18.05;;
56183;SDS011;42086;53.170;6.980;2022-12-18T06:52:38;50.80;;;18.65;;
56183;SDS011;42086;53.170;6.980;2022-12-18T06:55:05;47.88;;;17.83;;
56183;SDS011;42086;53.170;6.980;2022-12-18T06:57:36;46.83;;;17.45;;
56183;SDS011;42086;53.170;6.980;2022-12-18T07:00:03;51.88;;;17.40;;
56183;SDS011;42086;53.170;6.980;2022-12-18T07:02:30;49.60;;;18.15;;
56183;SDS011;42086;53.170;6.980;2022-12-18T07:04:55;47.55;;;16.48;;
56183;SDS011;42086;53.170;6.980;2022-12-18T07:07:21;48.28;;;18.30;;
56183;SDS011;42086;53.170;6.980;2022-12-18T07:09:48;42.92;;;15.98;;
56183;SDS011;42086;53.170;6.980;2022-12-18T07:12:14;47.10;;;17.90;;
56183;SDS011;42086;53.170;6.980;2022-12-18T07:14:40;46.25;;;17.60;;
56183;SDS011;42086;53.170;6.980;2022-12-18T07:17:06;39.72;;;15.88;;
56183;SDS011;42086;53.170;6.980;2022-12-18T07:19:32;43.22;;;17.02;;
56183;SDS011;42086;53.170;6.980;2022-12-18T07:21:58;47.30;;;16.60;;
56183;SDS011;42086;53.170;6.980;2022-12-18T07:24:24;39.17;;;16.15;;
56183;SDS011;42086;53.170;6.980;2022-12-18T07:26:50;44.22;;;17.52;;
56183;SDS011;42086;53.170;6.980;2022-12-18T07:29:15;47.13;;;17.23;;
56183;SDS011;42086;53.170;6.980;2022-12-18T07:31:41;45.05;;;16.40;;
56183;SDS011;42086;53.170;6.980;2022-12-18T07:34:13;49.08;;;17.52;;
56183;SDS011;42086;53.170;6.980;2022-12-18T07:36:40;43.85;;;16.63;;
56183;SDS011;42086;53.170;6.980;2022-12-18T07:39:06;42.50;;;17.13;;
56183;SDS011;42086;53.170;6.980;2022-12-18T07:41:32;45.03;;;17.40;;
56183;SDS011;42086;53.170;6.980;2022-12-18T07:43:58;42.10;;;15.60;;
56183;SDS011;42086;53.170;6.980;2022-12-18T07:46:23;45.17;;;16.15;;
56183;SDS011;42086;53.170;6.980;2022-12-18T07:48:49;40.17;;;16.58;;
56183;SDS011;42086;53.170;6.980;2022-12-18T07:51:15;39.55;;;15.80;;
56183;SDS011;42086;53.170;6.980;2022-12-18T07:53:41;43.30;;;16.70;;
56183;SDS011;42086;53.170;6.980;2022-12-18T07:56:08;40.00;;;15.30;;
56183;SDS011;42086;53.170;6.980;2022-12-18T07:58:35;41.00;;;15.90;;
56183;SDS011;42086;53.170;6.980;2022-12-18T08:01:02;39.78;;;15.77;;
56183;SDS011;42086;53.170;6.980;2022-12-18T08:03:29;39.55;;;15.52;;
56183;SDS011;42086;53.170;6.980;2022-12-18T08:05:59;40.17;;;16.02;;
56183;SDS011;42086;53.170;6.980;2022-12-18T08:08:25;36.63;;;14.93;;
56183;SDS011;42086;53.170;6.980;2022-12-18T08:10:51;37.10;;;15.27;;
56183;SDS011;42086;53.170;6.980;2022-12-18T08:13:16;36.33;;;13.23;;
56183;SDS011;42086;53.170;6.980;2022-12-18T08:15:42;38.13;;;15.50;;
56183;SDS011;42086;53.170;6.980;2022-12-18T08:18:08;36.38;;;15.18;;
56183;SDS011;42086;53.170;6.980;2022-12-18T08:20:33;38.97;;;15.27;;
56183;SDS011;42086;53.170;6.980;2022-12-18T08:22:59;35.58;;;14.60;;
56183;SDS011;42086;53.170;6.980;2022-12-18T08:25:25;36.92;;;14.57;;
56183;SDS011;42086;53.170;6.980;2022-12-18T08:27:50;36.40;;;14.93;;
56183;SDS011;42086;53.170;6.980;2022-12-18T08:30:16;38.00;;;15.38;;
56183;SDS011;42086;53.170;6.980;2022-12-18T08:32:42;38.58;;;15.43;;
56183;SDS011;42086;53.170;6.980;2022-12-18T08:35:08;37.28;;;14.43;;
56183;SDS011;42086;53.170;6.980;2022-12-18T08:37:34;37.15;;;14.93;;
56183;SDS011;42086;53.170;6.980;2022-12-18T08:39:59;37.15;;;13.77;;
56183;SDS011;42086;53.170;6.980;2022-12-18T08:42:25;34.65;;;14.55;;
56183;SDS011;42086;53.170;6.980;2022-12-18T08:45:09;34.05;;;14.18;;
56183;SDS011;42086;53.170;6.980;2022-12-18T08:47:35;34.42;;;14.70;;
56183;SDS011;42086;53.170;6.980;2022-12-18T08:50:01;36.65;;;13.95;;
56183;SDS011;42086;53.170;6.980;2022-12-18T08:52:27;35.88;;;13.55;;
56183;SDS011;42086;53.170;6.980;2022-12-18T08:54:53;30.70;;;13.65;;
56183;SDS011;42086;53.170;6.980;2022-12-18T08:57:19;33.10;;;14.32;;
56183;SDS011;42086;53.170;6.980;2022-12-18T08:59:44;31.77;;;13.93;;
56183;SDS011;42086;53.170;6.980;2022-12-18T09:02:10;35.63;;;14.82;;
56183;SDS011;42086;53.170;6.980;2022-12-18T09:04:36;30.42;;;13.68;;
56183;SDS011;42086;53.170;6.980;2022-12-18T09:07:02;28.75;;;13.25;;
56183;SDS011;42086;53.170;6.980;2022-12-18T09:09:27;31.40;;;13.52;;
56183;SDS011;42086;53.170;6.980;2022-12-18T09:11:53;33.33;;;14.25;;
56183;SDS011;42086;53.170;6.980;2022-12-18T09:14:19;29.45;;;12.98;;
56183;SDS011;42086;53.170;6.980;2022-12-18T09:16:45;29.38;;;13.00;;
56183;SDS011;42086;53.170;6.980;2022-12-18T09:19:10;32.80;;;14.02;;
56183;SDS011;42086;53.170;6.980;2022-12-18T09:21:36;30.80;;;13.80;;
56183;SDS011;42086;53.170;6.980;2022-12-18T09:24:03;29.55;;;13.73;;
56183;SDS011;42086;53.170;6.980;2022-12-18T09:26:30;30.00;;;13.75;;
56183;SDS011;42086;53.170;6.980;2022-12-18T09:28:56;27.70;;;13.43;;
56183;SDS011;42086;53.170;6.980;2022-12-18T09:31:22;30.45;;;13.32;;
56183;SDS011;42086;53.170;6.980;2022-12-18T09:33:49;26.60;;;12.75;;
56183;SDS011;42086;53.170;6.980;2022-12-18T09:36:15;23.58;;;12.18;;
56183;SDS011;42086;53.170;6.980;2022-12-18T09:38:42;26.38;;;11.63;;
56183;SDS011;42086;53.170;6.980;2022-12-18T09:41:17;29.15;;;12.07;;
56183;SDS011;42086;53.170;6.980;2022-12-18T09:43:49;24.58;;;11.27;;
56183;SDS011;42086;53.170;6.980;2022-12-18T09:46:26;23.10;;;10.43;;
56183;SDS011;42086;53.170;6.980;2022-12-18T09:49:01;25.23;;;11.18;;
56183;SDS011;42086;53.170;6.980;2022-12-18T09:51:39;27.27;;;11.18;;
56183;SDS011;42086;53.170;6.980;2022-12-18T09:54:23;18.27;;;8.98;;
56183;SDS011;42086;53.170;6.980;2022-12-18T09:57:13;18.13;;;9.80;;
56183;SDS011;42086;53.170;6.980;2022-12-18T09:59:43;20.98;;;9.90;;
56183;SDS011;42086;53.170;6.980;2022-12-18T10:02:16;20.05;;;9.40;;
56183;SDS011;42086;53.170;6.980;2022-12-18T10:04:50;19.52;;;9.15;;
56183;SDS011;42086;53.170;6.980;2022-12-18T10:13:05;17.45;;;8.30;;
56183;SDS011;42086;53.170;6.980;2022-12-18T10:21:04;15.60;;;8.50;;
56183;SDS011;42086;53.170;6.980;2022-12-18T10:26:10;17.40;;;8.00;;
56183;SDS011;42086;53.170;6.980;2022-12-18T10:28:38;17.75;;;8.68;;
56183;SDS011;42086;53.170;6.980;2022-12-18T10:31:19;15.60;;;7.55;;
56183;SDS011;42086;53.170;6.980;2022-12-18T10:33:46;17.70;;;8.05;;
56183;SDS011;42086;53.170;6.980;2022-12-18T10:36:12;14.68;;;8.10;;
56183;SDS011;42086;53.170;6.980;2022-12-18T10:38:38;14.68;;;7.57;;
56183;SDS011;42086;53.170;6.980;2022-12-18T10:43:34;13.98;;;7.38;;
56183;SDS011;42086;53.170;6.980;2022-12-18T10:48:31;12.73;;;6.88;;
56183;SDS011;42086;53.170;6.980;2022-12-18T10:50:59;12.75;;;6.80;;
56183;SDS011;42086;53.170;6.980;2022-12-18T10:53:26;13.98;;;6.68;;
56183;SDS011;42086;53.170;6.980;2022-12-18T10:55:54;13.30;;;7.07;;
56183;SDS011;42086;53.170;6.980;2022-12-18T11:01:15;13.95;;;7.32;;
56183;SDS011;42086;53.170;6.980;2022-12-18T11:03:47;12.50;;;6.80;;
56183;SDS011;42086;53.170;6.980;2022-12-18T11:06:25;12.30;;;5.90;;
56183;SDS011;42086;53.170;6.980;2022-12-18T11:08:59;14.88;;;6.43;;
56183;SDS011;42086;53.170;6.980;2022-12-18T11:11:29;13.27;;;6.53;;
56183;SDS011;42086;53.170;6.980;2022-12-18T11:16:22;11.25;;;6.50;;
56183;SDS011;42086;53.170;6.980;2022-12-18T11:18:48;13.35;;;6.63;;
56183;SDS011;42086;53.170;6.980;2022-12-18T11:21:14;12.35;;;6.32;;
56183;SDS011;42086;53.170;6.980;2022-12-18T11:23:46;13.02;;;6.82;;
56183;SDS011;42086;53.170;6.980;2022-12-18T11:26:16;12.63;;;6.53;;
56183;SDS011;42086;53.170;6.980;2022-12-18T11:28:46;13.40;;;6.05;;
56183;SDS011;42086;53.170;6.980;2022-12-18T11:31:21;11.30;;;6.28;;
56183;SDS011;42086;53.170;6.980;2022-12-18T11:36:54;12.35;;;6.35;;
56183;SDS011;42086;53.170;6.980;2022-12-18T11:42:24;12.48;;;6.70;;
56183;SDS011;42086;53.170;6.980;2022-12-18T11:53:11;12.13;;;6.05;;
56183;SDS011;42086;53.170;6.980;2022-12-18T12:01:14;13.10;;;6.35;;
56183;SDS011;42086;53.170;6.980;2022-12-18T12:09:26;12.23;;;6.50;;
56183;SDS011;42086;53.170;6.980;2022-12-18T12:15:19;10.38;;;4.93;;
56183;SDS011;42086;53.170;6.980;2022-12-18T12:20:36;12.40;;;6.45;;
56183;SDS011;42086;53.170;6.980;2022-12-18T12:26:35;11.20;;;6.53;;
56183;SDS011;42086;53.170;6.980;2022-12-18T12:35:07;15.00;;;6.40;;
56183;SDS011;42086;53.170;6.980;2022-12-18T12:40:34;11.60;;;5.95;;
56183;SDS011;42086;53.170;6.980;2022-12-18T12:48:19;11.07;;;5.85;;
56183;SDS011;42086;53.170;6.980;2022-12-18T12:50:48;10.20;;;5.93;;
56183;SDS011;42086;53.170;6.980;2022-12-18T12:53:27;11.73;;;6.35;;
56183;SDS011;42086;53.170;6.980;2022-12-18T12:55:57;11.40;;;6.10;;
56183;SDS011;42086;53.170;6.980;2022-12-18T13:04:23;12.55;;;6.10;;
56183;SDS011;42086;53.170;6.980;2022-12-18T13:12:35;13.13;;;6.40;;
56183;SDS011;42086;53.170;6.980;2022-12-18T13:15:28;11.57;;;7.07;;
56183;SDS011;42086;53.170;6.980;2022-12-18T13:20:35;15.63;;;7.38;;
56183;SDS011;42086;53.170;6.980;2022-12-18T13:23:01;14.80;;;7.25;;
56183;SDS011;42086;53.170;6.980;2022-12-18T13:26:27;14.00;;;6.88;;
56183;SDS011;42086;53.170;6.980;2022-12-18T13:36:42;13.32;;;7.60;;
56183;SDS011;42086;53.170;6.980;2022-12-18T13:41:37;14.20;;;6.95;;
56183;SDS011;42086;53.170;6.980;2022-12-18T13:44:13;18.20;;;7.90;;
56183;SDS011;42086;53.170;6.980;2022-12-18T13:47:05;14.80;;;7.78;;
56183;SDS011;42086;53.170;6.980;2022-12-18T13:50:22;15.60;;;7.88;;
56183;SDS011;42086;53.170;6.980;2022-12-18T13:52:49;17.88;;;9.48;;
56183;SDS011;42086;53.170;6.980;2022-12-18T13:55:17;14.55;;;8.18;;
56183;SDS011;42086;53.170;6.980;2022-12-18T13:57:46;16.17;;;8.80;;
56183;SDS011;42086;53.170;6.980;2022-12-18T14:00:33;15.32;;;8.35;;
56183;SDS011;42086;53.170;6.980;2022-12-18T14:02:58;16.88;;;8.13;;
56183;SDS011;42086;53.170;6.980;2022-12-18T14:05:25;16.17;;;8.38;;
56183;SDS011;42086;53.170;6.980;2022-12-18T14:07:59;16.63;;;8.43;;
56183;SDS011;42086;53.170;6.980;2022-12-18T14:10:41;15.60;;;8.30;;
56183;SDS011;42086;53.170;6.980;2022-12-18T14:13:09;14.32;;;8.70;;
56183;SDS011;42086;53.170;6.980;2022-12-18T14:15:39;17.70;;;8.85;;
56183;SDS011;42086;53.170;6.980;2022-12-18T14:20:45;17.70;;;8.70;;
56183;SDS011;42086;53.170;6.980;2022-12-18T14:23:29;19.15;;;9.35;;
56183;SDS011;42086;53.170;6.980;2022-12-18T14:28:45;16.67;;;8.50;;
56183;SDS011;42086;53.170;6.980;2022-12-18T14:31:27;17.45;;;9.48;;
56183;SDS011;42086;53.170;6.980;2022-12-18T14:33:55;22.05;;;9.55;;
56183;SDS011;42086;53.170;6.980;2022-12-18T14:36:22;17.90;;;8.48;;
56183;SDS011;42086;53.170;6.980;2022-12-18T14:38:54;18.42;;;8.77;;
56183;SDS011;42086;53.170;6.980;2022-12-18T14:41:21;17.80;;;9.02;;
56183;SDS011;42086;53.170;6.980;2022-12-18T14:43:48;18.75;;;8.40;;
56183;SDS011;42086;53.170;6.980;2022-12-18T14:48:55;16.45;;;8.13;;
56183;SDS011;42086;53.170;6.980;2022-12-18T14:51:23;18.02;;;9.00;;
56183;SDS011;42086;53.170;6.980;2022-12-18T14:54:01;16.80;;;8.93;;
56183;SDS011;42086;53.170;6.980;2022-12-18T14:56:35;17.85;;;8.75;;
56183;SDS011;42086;53.170;6.980;2022-12-18T14:59:23;16.88;;;9.07;;
56183;SDS011;42086;53.170;6.980;2022-12-18T15:04:36;18.42;;;8.60;;
56183;SDS011;42086;53.170;6.980;2022-12-18T15:07:15;17.48;;;9.18;;
56183;SDS011;42086;53.170;6.980;2022-12-18T15:10:09;18.00;;;9.15;;
56183;SDS011;42086;53.170;6.980;2022-12-18T15:12:39;17.65;;;8.30;;
56183;SDS011;42086;53.170;6.980;2022-12-18T15:18:05;18.05;;;8.77;;
56183;SDS011;42086;53.170;6.980;2022-12-18T15:25:49;18.23;;;8.70;;
56183;SDS011;42086;53.170;6.980;2022-12-18T15:28:23;16.20;;;9.15;;
56183;SDS011;42086;53.170;6.980;2022-12-18T15:31:00;16.95;;;9.13;;
56183;SDS011;42086;53.170;6.980;2022-12-18T15:33:39;18.35;;;9.18;;
56183;SDS011;42086;53.170;6.980;2022-12-18T15:36:13;17.55;;;8.98;;
56183;SDS011;42086;53.170;6.980;2022-12-18T15:41:10;18.35;;;9.50;;
56183;SDS011;42086;53.170;6.980;2022-12-18T15:43:38;22.10;;;9.90;;
56183;SDS011;42086;53.170;6.980;2022-12-18T15:46:05;19.05;;;9.23;;
56183;SDS011;42086;53.170;6.980;2022-12-18T15:48:34;17.02;;;9.00;;
56183;SDS011;42086;53.170;6.980;2022-12-18T15:51:04;17.30;;;8.57;;
56183;SDS011;42086;53.170;6.980;2022-12-18T15:53:36;16.23;;;9.43;;
56183;SDS011;42086;53.170;6.980;2022-12-18T15:56:04;16.83;;;8.68;;
56183;SDS011;42086;53.170;6.980;2022-12-18T15:58:52;18.13;;;8.40;;
56183;SDS011;42086;53.170;6.980;2022-12-18T16:01:18;18.25;;;9.25;;
56183;SDS011;42086;53.170;6.980;2022-12-18T16:03:45;18.92;;;9.10;;
56183;SDS011;42086;53.170;6.980;2022-12-18T16:06:10;20.50;;;9.65;;
56183;SDS011;42086;53.170;6.980;2022-12-18T16:08:36;15.82;;;8.38;;
56183;SDS011;42086;53.170;6.980;2022-12-18T16:11:02;20.45;;;9.13;;
56183;SDS011;42086;53.170;6.980;2022-12-18T16:13:28;15.70;;;8.63;;
56183;SDS011;42086;53.170;6.980;2022-12-18T16:15:54;18.52;;;8.52;;
56183;SDS011;42086;53.170;6.980;2022-12-18T16:18:19;19.35;;;8.75;;
56183;SDS011;42086;53.170;6.980;2022-12-18T16:20:45;16.08;;;8.57;;
56183;SDS011;42086;53.170;6.980;2022-12-18T16:23:11;14.88;;;8.48;;
56183;SDS011;42086;53.170;6.980;2022-12-18T16:25:38;15.50;;;8.57;;
56183;SDS011;42086;53.170;6.980;2022-12-18T16:28:04;15.38;;;8.02;;
56183;SDS011;42086;53.170;6.980;2022-12-18T16:30:30;18.67;;;8.00;;
56183;SDS011;42086;53.170;6.980;2022-12-18T16:32:57;17.70;;;8.50;;
56183;SDS011;42086;53.170;6.980;2022-12-18T16:35:23;15.13;;;7.55;;
56183;SDS011;42086;53.170;6.980;2022-12-18T16:37:50;15.20;;;7.93;;
56183;SDS011;42086;53.170;6.980;2022-12-18T16:40:18;16.08;;;8.30;;
56183;SDS011;42086;53.170;6.980;2022-12-18T16:42:45;20.13;;;8.73;;
56183;SDS011;42086;53.170;6.980;2022-12-18T16:45:13;15.65;;;7.47;;
56183;SDS011;42086;53.170;6.980;2022-12-18T16:47:41;15.05;;;7.93;;
56183;SDS011;42086;53.170;6.980;2022-12-18T16:50:07;13.65;;;7.40;;
56183;SDS011;42086;53.170;6.980;2022-12-18T16:52:34;12.88;;;6.75;;
56183;SDS011;42086;53.170;6.980;2022-12-18T16:55:00;12.63;;;6.53;;
56183;SDS011;42086;53.170;6.980;2022-12-18T16:57:25;14.35;;;6.40;;